createdAt,value
2022-11-24T00:02:28.980Z,159659.59
2022-11-24T00:05:38.432Z,159666.09
2022-11-24T00:08:44.947Z,159681.75
2022-11-24T00:11:48.526Z,159679.09
2022-11-24T00:14:52.488Z,159659.59
2022-11-24T00:17:56.676Z,159664.81
2022-11-24T00:21:00.805Z,159641.28
2022-11-24T00:24:04.645Z,159612.63
2022-11-24T00:27:08.723Z,159612.63
2022-11-24T00:30:13.107Z,159615.28
2022-11-24T00:33:17.301Z,159610.03
2022-11-24T00:36:22.953Z,159623.06
2022-11-24T00:39:27.397Z,159621.78
2022-11-24T00:42:31.590Z,159610.03
2022-11-24T00:45:35.509Z,159598.31
2022-11-24T00:48:39.621Z,159607.44
2022-11-24T00:51:43.921Z,159619.19
2022-11-24T00:54:47.932Z,159602.22
2022-11-24T00:57:52.255Z,159593.06
2022-11-24T01:01:27.700Z,159600.91
2022-11-24T01:04:32.246Z,159596.97
2022-11-24T01:07:36.777Z,159583.94
2022-11-24T01:10:40.766Z,159612.63
2022-11-24T01:13:47.051Z,159604.81
2022-11-24T01:16:51.569Z,159598.31
2022-11-24T01:19:55.846Z,159587.84
2022-11-24T01:23:00.025Z,159596.97
2022-11-24T01:26:06.089Z,159606.13
2022-11-24T01:29:11.092Z,159594.41
2022-11-24T01:32:14.857Z,159602.22
2022-11-24T01:35:18.863Z,159610.03
2022-11-24T01:38:22.950Z,159610.03
2022-11-24T01:41:27.606Z,159600.91
2022-11-24T01:44:32.160Z,159608.72
2022-11-24T01:47:40.776Z,159604.81
2022-11-24T01:50:46.157Z,159603.53
2022-11-24T01:53:56.163Z,159615.28
2022-11-24T01:57:14.680Z,159630.88
2022-11-24T02:00:18.891Z,159654.34
2022-11-24T02:03:27.081Z,159630.88
2022-11-24T02:06:34.809Z,159590.47
2022-11-24T02:09:52.857Z,159612.63
2022-11-24T02:13:00.187Z,159591.75
2022-11-24T02:16:08.066Z,159625.63
2022-11-24T02:20:11.055Z,159615.28
2022-11-24T02:23:24.832Z,159620.47
2022-11-24T02:26:40.222Z,159613.94
2022-11-24T02:29:44.495Z,159610.03
2022-11-24T02:32:48.609Z,159626.97
2022-11-24T02:35:53.161Z,159617.88
2022-11-24T02:38:57.425Z,159610.03
2022-11-24T02:42:13.900Z,159599.56
2022-11-24T02:45:18.646Z,159600.91
2022-11-24T02:48:22.463Z,159600.91
2022-11-24T02:51:26.601Z,159606.13
2022-11-24T02:54:31.116Z,159619.19
2022-11-24T02:57:35.469Z,159638.69
2022-11-24T03:00:39.419Z,159645.22
2022-11-24T03:03:43.655Z,159638.69
2022-11-24T03:06:47.910Z,159651.75
2022-11-24T03:09:52.167Z,159650.44
2022-11-24T03:12:56.657Z,159658.25
2022-11-24T03:16:00.460Z,159664.81
2022-11-24T03:19:04.963Z,159677.81
2022-11-24T03:22:08.820Z,159710.47
2022-11-24T03:25:13.111Z,159705.22
2022-11-24T03:28:17.233Z,159698.66
2022-11-24T03:31:21.734Z,159699.97
2022-11-24T03:34:25.419Z,159710.47
2022-11-24T03:37:29.272Z,159726.09
2022-11-24T03:40:33.476Z,159727.44
2022-11-24T03:43:43.175Z,159736.47
2022-11-24T03:46:48.523Z,159746.94
2022-11-24T03:49:52.614Z,159748.22
2022-11-24T03:52:56.819Z,159752.19
2022-11-24T03:56:02.069Z,159760.00
2022-11-24T03:59:06.365Z,159763.91
2022-11-24T04:02:10.693Z,159774.34
2022-11-24T04:05:14.841Z,159792.59
2022-11-24T04:08:19.334Z,159803.00
2022-11-24T04:11:41.750Z,159823.91
2022-11-24T04:14:45.777Z,159829.09
2022-11-24T04:17:50.640Z,159839.50
2022-11-24T04:20:54.984Z,159838.25
2022-11-24T04:23:58.831Z,159850.00
2022-11-24T04:27:02.861Z,159847.41
2022-11-24T04:30:07.720Z,159855.22
2022-11-24T04:33:12.350Z,159859.13
2022-11-24T04:36:16.362Z,159860.41
2022-11-24T04:39:26.248Z,159866.97
2022-11-24T04:42:32.881Z,159864.34
2022-11-24T04:45:37.142Z,159865.66
2022-11-24T04:48:41.991Z,159877.34
2022-11-24T04:51:46.939Z,159881.25
2022-11-24T04:54:50.975Z,159889.09
2022-11-24T04:57:54.941Z,159885.19
2022-11-24T05:00:59.081Z,159893.00
2022-11-24T05:04:03.176Z,159902.16
2022-11-24T05:07:07.754Z,159907.41
2022-11-24T05:10:30.450Z,159906.06
2022-11-24T05:13:34.618Z,159903.47
2022-11-24T05:16:38.950Z,159937.41
2022-11-24T05:19:43.351Z,159942.63
2022-11-24T05:22:47.496Z,159968.69
2022-11-24T05:25:51.666Z,159949.16
2022-11-24T05:28:55.775Z,159950.47
2022-11-24T05:31:59.710Z,159966.09
2022-11-24T05:35:04.482Z,159956.97
2022-11-24T05:38:08.554Z,159970.00
2022-11-24T05:41:12.667Z,159976.50
2022-11-24T05:44:16.612Z,159972.59
2022-11-24T05:47:21.308Z,159954.38
2022-11-24T05:50:25.569Z,159946.56
2022-11-24T05:53:29.552Z,159942.63
2022-11-24T05:56:33.609Z,159983.06
2022-11-24T05:59:37.423Z,159983.06
2022-11-24T06:02:41.404Z,159983.06
2022-11-24T06:05:47.250Z,159985.66
2022-11-24T06:08:51.207Z,159989.59
2022-11-24T06:11:55.995Z,159993.50
2022-11-24T06:15:00.192Z,160019.59
2022-11-24T06:18:04.520Z,160039.19
2022-11-24T06:21:11.512Z,160017.00
2022-11-24T06:24:15.733Z,160022.19
2022-11-24T06:27:19.598Z,160009.13
2022-11-24T06:30:23.745Z,160010.44
2022-11-24T06:33:32.160Z,160028.75
2022-11-24T06:36:36.450Z,160027.44
2022-11-24T06:39:40.542Z,160040.50
2022-11-24T06:42:50.047Z,160032.66
2022-11-24T06:45:54.293Z,160046.97
2022-11-24T06:48:59.771Z,160046.97
2022-11-24T06:52:03.662Z,160062.63
2022-11-24T06:55:08.495Z,160078.34
2022-11-24T06:58:12.960Z,160067.88
2022-11-24T07:01:25.842Z,160084.81
2022-11-24T07:04:30.257Z,160084.81
2022-11-24T07:07:34.542Z,160097.88
2022-11-24T07:10:39.049Z,160124.00
2022-11-24T07:13:44.459Z,160117.47
2022-11-24T07:16:48.231Z,160144.91
2022-11-24T07:19:52.369Z,160146.19
2022-11-24T07:22:57.351Z,160160.53
2022-11-24T07:26:08.773Z,160155.34
2022-11-24T07:29:12.636Z,160157.88
2022-11-24T07:32:16.598Z,160163.13
2022-11-24T07:35:20.500Z,160194.47
2022-11-24T07:38:24.242Z,160195.75
2022-11-24T07:41:28.119Z,160207.50
2022-11-24T07:44:32.679Z,160221.91
2022-11-24T07:47:40.865Z,160233.59
2022-11-24T07:50:45.390Z,160258.44
2022-11-24T07:53:49.360Z,160246.69
2022-11-24T07:56:53.364Z,160242.78
2022-11-24T07:59:57.458Z,160242.78
2022-11-24T08:03:02.094Z,160258.44
2022-11-24T08:09:30.707Z,160304.13
2022-11-24T08:12:34.636Z,160323.72
2022-11-24T08:15:39.466Z,160344.59
2022-11-24T08:18:44.405Z,160356.41
2022-11-24T08:21:48.414Z,160360.31
2022-11-24T08:24:52.733Z,160366.78
2022-11-24T08:27:57.104Z,160372.03
2022-11-24T08:31:09.456Z,160374.63
2022-11-24T08:34:13.922Z,160389.03
2022-11-24T08:37:18.044Z,160415.13
2022-11-24T08:40:23.001Z,160432.06
2022-11-24T08:43:27.194Z,160437.31
2022-11-24T08:46:31.708Z,160462.13
2022-11-24T08:49:36.236Z,160475.22
2022-11-24T08:52:40.216Z,160505.28
2022-11-24T08:55:44.308Z,160534.00
2022-11-24T08:58:48.479Z,160569.25
2022-11-24T09:01:52.605Z,160588.81
2022-11-24T09:04:56.697Z,160609.72
2022-11-24T09:08:00.662Z,160624.13
2022-11-24T09:11:10.952Z,160646.28
2022-11-24T09:14:15.004Z,160669.84
2022-11-24T09:17:18.861Z,160672.44
2022-11-24T09:20:22.843Z,160662.03
2022-11-24T09:23:26.846Z,160659.41
2022-11-24T09:26:33.412Z,160655.47
2022-11-24T09:29:37.757Z,160659.41
2022-11-24T09:32:41.690Z,160665.91
2022-11-24T09:35:45.812Z,160671.13
2022-11-24T09:38:49.877Z,160664.59
2022-11-24T09:42:09.303Z,160662.03
2022-11-24T09:46:08.844Z,160673.75
2022-11-24T09:49:24.145Z,160680.28
2022-11-24T09:52:39.251Z,160682.94
2022-11-24T09:55:52.124Z,160689.47
2022-11-24T09:59:05.274Z,160703.84
2022-11-24T10:02:15.594Z,160720.81
2022-11-24T10:05:19.864Z,160739.09
2022-11-24T10:09:07.446Z,160774.38
2022-11-24T10:12:30.360Z,160803.13
2022-11-24T10:15:41.504Z,160845.00
2022-11-24T10:18:52.134Z,160881.56
2022-11-24T10:22:07.248Z,160920.78
2022-11-24T10:25:23.384Z,160940.41
2022-11-24T10:28:42.203Z,160975.66
2022-11-24T10:31:48.037Z,160974.31
2022-11-24T10:34:54.117Z,160963.91
2022-11-24T10:38:14.107Z,160961.25
2022-11-24T10:41:29.526Z,160949.53
2022-11-24T10:44:33.845Z,160931.22
2022-11-24T10:47:38.608Z,160910.31
2022-11-24T10:50:42.955Z,160892.00
2022-11-24T10:53:48.486Z,160898.59
2022-11-24T10:56:54.324Z,160911.59
2022-11-24T10:59:59.025Z,160931.22
2022-11-24T11:03:18.909Z,160946.94
2022-11-24T11:06:28.779Z,160967.84
2022-11-24T11:09:33.000Z,160996.59
2022-11-24T11:12:45.281Z,161012.28
2022-11-24T11:15:52.427Z,161004.41
2022-11-24T11:18:56.526Z,161010.94
2022-11-24T11:22:28.906Z,161025.34
2022-11-24T11:25:35.441Z,161007.00
2022-11-24T11:28:39.720Z,161007.00
2022-11-24T11:35:22.469Z,160987.44
2022-11-24T11:38:33.647Z,160996.59
2022-11-24T11:41:43.441Z,161013.59
2022-11-24T11:44:55.127Z,161029.25
2022-11-24T11:48:03.019Z,161033.19
2022-11-24T11:51:25.641Z,161054.09
2022-11-24T11:54:37.468Z,161082.88
2022-11-24T11:58:15.219Z,161116.88
2022-11-24T12:01:19.521Z,161126.06
2022-11-24T12:04:42.223Z,161131.25
2022-11-24T12:08:21.954Z,161132.56
2022-11-24T12:11:35.510Z,161141.72
2022-11-24T12:14:48.702Z,161149.56
2022-11-24T12:18:40.320Z,161161.31
2022-11-24T12:22:16.222Z,161171.81
2022-11-24T12:25:30.260Z,161165.25
2022-11-24T12:28:45.456Z,161149.56
2022-11-24T12:32:23.696Z,161135.22
2022-11-24T12:35:42.658Z,161150.91
2022-11-24T12:38:59.228Z,161169.16
2022-11-24T12:42:40.579Z,161197.94
2022-11-24T12:46:01.234Z,161213.66
2022-11-24T12:49:08.369Z,161226.75
2022-11-24T12:52:23.583Z,161235.88
2022-11-24T12:55:30.136Z,161239.81
2022-11-24T12:59:05.556Z,161224.13
2022-11-24T13:02:22.734Z,161235.88
2022-11-24T13:05:36.256Z,161238.53
2022-11-24T13:08:40.867Z,161224.13
2022-11-24T13:11:49.279Z,161214.94
2022-11-24T13:14:53.536Z,161194.03
2022-11-24T13:18:10.263Z,161166.56
2022-11-24T13:21:51.923Z,161150.91
2022-11-24T13:25:24.666Z,161116.88
2022-11-24T13:29:08.842Z,161101.19
2022-11-24T13:32:19.980Z,161101.19
2022-11-24T13:35:24.268Z,161103.81
2022-11-24T13:38:43.879Z,161109.06
2022-11-24T13:41:47.926Z,161106.41
2022-11-24T13:44:52.144Z,161090.75
2022-11-24T13:47:55.926Z,161076.34
2022-11-24T13:51:01.406Z,161055.44
2022-11-24T13:54:10.601Z,161081.56
2022-11-24T13:57:39.646Z,161075.03
2022-11-24T14:01:21.303Z,161056.72
2022-11-24T14:04:32.030Z,161061.97
2022-11-24T14:07:37.410Z,161067.22
2022-11-24T14:10:42.704Z,161072.41
2022-11-24T14:13:46.604Z,161069.78
2022-11-24T14:17:15.191Z,161055.44
2022-11-24T14:20:24.506Z,161059.38
2022-11-24T14:23:28.626Z,161044.97
2022-11-24T14:26:35.559Z,161025.34
2022-11-24T14:29:54.170Z,161024.00
2022-11-24T14:33:03.132Z,161014.94
2022-11-24T14:36:15.309Z,161026.66
2022-11-24T14:39:22.928Z,161030.59
2022-11-24T14:42:27.587Z,161013.59
2022-11-24T14:45:32.095Z,160990.09
2022-11-24T14:48:38.740Z,160978.25
2022-11-24T14:51:46.091Z,160956.06
2022-11-24T14:54:53.532Z,160952.13
2022-11-24T14:57:58.752Z,160954.75
2022-11-24T15:01:30.625Z,160941.69
2022-11-24T15:05:03.155Z,160929.91
2022-11-24T15:08:14.289Z,160916.84
2022-11-24T15:11:18.192Z,160895.94
2022-11-24T15:14:40.191Z,160881.56
2022-11-24T15:17:53.331Z,160886.75
2022-11-24T15:20:57.519Z,160889.41
2022-11-24T15:24:06.263Z,160897.25
2022-11-24T15:27:10.372Z,160906.38
2022-11-24T15:30:14.664Z,160915.56
2022-11-24T15:33:19.310Z,160915.56
2022-11-24T15:36:23.217Z,160923.41
2022-11-24T15:39:27.204Z,160909.00
2022-11-24T15:42:31.079Z,160915.56
2022-11-24T15:45:34.938Z,160914.25
2022-11-24T15:48:38.932Z,160905.06
2022-11-24T15:51:45.511Z,160916.84
2022-11-24T15:54:53.912Z,160926.03
2022-11-24T15:57:57.909Z,160943.00
2022-11-24T16:01:01.863Z,160960.00
2022-11-24T16:04:05.914Z,160946.94
2022-11-24T16:07:13.337Z,160929.91
2022-11-24T16:10:24.881Z,160906.38
2022-11-24T16:13:28.845Z,160903.75
2022-11-24T16:16:33.267Z,160899.88
2022-11-24T16:19:41.572Z,160880.22
2022-11-24T16:22:46.567Z,160865.84
2022-11-24T16:25:50.867Z,160871.09
2022-11-24T16:28:54.902Z,160860.66
2022-11-24T16:31:59.044Z,160847.59
2022-11-24T16:35:03.975Z,160843.66
2022-11-24T16:38:17.906Z,160837.09
2022-11-24T16:41:21.994Z,160835.81
2022-11-24T16:44:26.160Z,160841.03
2022-11-24T16:47:30.460Z,160848.91
2022-11-24T16:50:35.695Z,160846.25
2022-11-24T16:53:39.941Z,160855.38
2022-11-24T16:56:44.220Z,160850.16
2022-11-24T16:59:48.210Z,160843.66
2022-11-24T17:02:52.409Z,160845.00
2022-11-24T17:06:00.626Z,160845.00
2022-11-24T17:09:04.877Z,160838.41
2022-11-24T17:12:08.875Z,160839.75
2022-11-24T17:18:37.223Z,160831.91
2022-11-24T17:21:41.135Z,160827.97
2022-11-24T17:24:45.284Z,160827.97
2022-11-24T17:27:49.428Z,160824.09
2022-11-24T17:30:53.508Z,160829.25
2022-11-24T17:33:59.720Z,160829.25
2022-11-24T17:37:03.493Z,160829.25
2022-11-24T17:40:27.498Z,160830.56
2022-11-24T17:43:32.585Z,160829.25
2022-11-24T17:46:37.226Z,160839.75
2022-11-24T17:49:41.128Z,160842.34
2022-11-24T17:52:45.031Z,160838.41
2022-11-24T17:55:48.968Z,160835.81
2022-11-24T17:58:58.321Z,160826.63
2022-11-24T18:02:02.692Z,160824.09
2022-11-24T18:05:06.913Z,160813.59
2022-11-24T18:08:12.048Z,160808.34
2022-11-24T18:11:23.565Z,160811.00
2022-11-24T18:14:30.543Z,160811.00
2022-11-24T18:17:34.837Z,160808.34
2022-11-24T18:20:38.844Z,160804.41
2022-11-24T18:23:43.341Z,160797.94
2022-11-24T18:26:47.755Z,160805.72
2022-11-24T18:29:56.075Z,160808.34
2022-11-24T18:33:00.412Z,160803.13
2022-11-24T18:36:06.664Z,160809.66
2022-11-24T18:39:11.063Z,160809.66
2022-11-24T18:42:15.646Z,160803.13
2022-11-24T18:45:19.366Z,160803.13
2022-11-24T18:48:25.654Z,160797.94
2022-11-24T18:51:30.049Z,160787.44
2022-11-24T18:54:36.233Z,160784.84
2022-11-24T18:57:40.269Z,160790.09
2022-11-24T19:00:44.481Z,160795.34
2022-11-24T19:03:51.755Z,160795.34
2022-11-24T19:06:55.787Z,160795.34
2022-11-24T19:09:59.896Z,160795.34
2022-11-24T19:13:04.358Z,160790.09
2022-11-24T19:16:12.476Z,160787.44
2022-11-24T19:19:17.210Z,160790.09
2022-11-24T19:22:21.728Z,160775.66
2022-11-24T19:25:25.694Z,160779.56
2022-11-24T19:28:29.622Z,160794.00
2022-11-24T19:31:35.232Z,160784.84
2022-11-24T19:34:39.467Z,160779.56
2022-11-24T19:37:43.561Z,160786.16
2022-11-24T19:40:47.667Z,160786.16
2022-11-24T19:43:55.031Z,160771.78
2022-11-24T19:46:58.854Z,160773.06
2022-11-24T19:50:08.975Z,160774.38
2022-11-24T19:53:14.562Z,160783.50
2022-11-24T19:56:23.927Z,160771.78
2022-11-24T19:59:28.278Z,160763.94
2022-11-24T20:02:32.372Z,160775.66
2022-11-24T20:05:36.664Z,160778.31
2022-11-24T20:08:41.433Z,160769.19
2022-11-24T20:11:45.817Z,160752.16
2022-11-24T20:14:50.050Z,160746.91
2022-11-24T20:17:54.137Z,160736.50
2022-11-24T20:21:05.533Z,160729.94
2022-11-24T20:24:15.263Z,160726.00
2022-11-24T20:27:19.827Z,160724.72
2022-11-24T20:30:24.071Z,160726.00
2022-11-24T20:33:28.711Z,160720.81
2022-11-24T20:36:33.996Z,160707.75
2022-11-24T20:39:37.678Z,160705.09
2022-11-24T20:42:41.918Z,160726.00
2022-11-24T20:45:46.172Z,160727.34
2022-11-24T20:48:50.943Z,160732.59
2022-11-24T20:51:57.105Z,160733.84
2022-11-24T20:55:03.772Z,160729.94
2022-11-24T20:58:07.841Z,160733.84
2022-11-24T21:01:17.831Z,160731.25
2022-11-24T21:04:25.545Z,160728.66
2022-11-24T21:07:29.513Z,160727.34
2022-11-24T21:10:33.772Z,160731.25
2022-11-24T21:13:39.825Z,160741.72
2022-11-24T21:16:44.531Z,160743.03
2022-11-24T21:19:48.730Z,160748.22
2022-11-24T21:22:52.912Z,160735.19
2022-11-24T21:26:05.328Z,160723.41
2022-11-24T21:29:12.472Z,160702.50
2022-11-24T21:32:16.324Z,160685.53
2022-11-24T21:35:20.257Z,160684.22
2022-11-24T21:38:24.553Z,160681.63
2022-11-24T21:41:29.484Z,160679.00
2022-11-24T21:44:33.606Z,160686.88
2022-11-24T21:47:38.520Z,160690.78
2022-11-24T21:50:42.378Z,160656.78
2022-11-24T21:53:47.321Z,160633.31
2022-11-24T21:56:53.486Z,160614.97
2022-11-24T21:59:57.675Z,160607.16
2022-11-24T22:03:01.721Z,160612.34
2022-11-24T22:06:06.113Z,160626.72
2022-11-24T22:09:14.811Z,160651.53
2022-11-24T22:12:21.360Z,160654.19
2022-11-24T22:15:25.114Z,160651.53
2022-11-24T22:18:34.023Z,160655.47
2022-11-24T22:21:38.082Z,160652.88
2022-11-24T22:24:42.451Z,160652.88
2022-11-24T22:27:46.471Z,160656.78
2022-11-24T22:30:50.520Z,160662.03
2022-11-24T22:33:55.901Z,160641.09
2022-11-24T22:36:59.909Z,160628.06
2022-11-24T22:40:04.606Z,160622.81
2022-11-24T22:43:08.468Z,160629.38
2022-11-24T22:46:18.133Z,160642.38
2022-11-24T22:49:23.543Z,160635.84
2022-11-24T22:52:27.431Z,160646.28
2022-11-24T22:55:31.534Z,160656.78
2022-11-24T22:58:36.147Z,160655.47
2022-11-24T23:01:40.201Z,160652.88
2022-11-24T23:04:44.304Z,160658.13
2022-11-24T23:07:48.354Z,160656.78
2022-11-24T23:10:57.729Z,160662.03
2022-11-24T23:14:02.292Z,160663.31
2022-11-24T23:17:06.450Z,160669.84
2022-11-24T23:20:11.421Z,160669.84
2022-11-24T23:23:15.172Z,160665.91
2022-11-24T23:26:22.035Z,160642.38
2022-11-24T23:29:26.266Z,160637.19
2022-11-24T23:32:30.221Z,160642.38
2022-11-24T23:35:34.548Z,160633.31
2022-11-24T23:38:39.251Z,160624.13
2022-11-24T23:41:43.180Z,160633.31
2022-11-24T23:44:47.403Z,160634.56
2022-11-24T23:47:53.653Z,160648.94
2022-11-24T23:50:58.459Z,160601.91
2022-11-24T23:54:02.292Z,160588.81
2022-11-24T23:57:06.081Z,160582.28
